sensor_id;sensor_type;location;lat;lon;timestamp;P1;durP1;ratioP1;P2;durP2;ratioP2
22026;SDS011;11177;50.966;10.070;2022-09-29T00:01:32;7.60;;;5.70;;
22026;SDS011;11177;50.966;10.070;2022-09-29T00:04:02;8.38;;;5.90;;
22026;SDS011;11177;50.966;10.070;2022-09-29T00:06:30;7.32;;;5.30;;
22026;SDS011;11177;50.966;10.070;2022-09-29T00:08:58;10.70;;;5.75;;
22026;SDS011;11177;50.966;10.070;2022-09-29T00:11:26;9.32;;;5.63;;
22026;SDS011;11177;50.966;10.070;2022-09-29T00:13:53;7.05;;;5.28;;
22026;SDS011;11177;50.966;10.070;2022-09-29T00:16:20;8.77;;;5.25;;
22026;SDS011;11177;50.966;10.070;2022-09-29T00:18:48;6.50;;;5.18;;
22026;SDS011;11177;50.966;10.070;2022-09-29T00:21:16;6.80;;;5.15;;
22026;SDS011;11177;50.966;10.070;2022-09-29T00:23:46;7.85;;;4.93;;
22026;SDS011;11177;50.966;10.070;2022-09-29T00:26:21;7.78;;;5.40;;
22026;SDS011;11177;50.966;10.070;2022-09-29T00:28:51;7.72;;;5.38;;
22026;SDS011;11177;50.966;10.070;2022-09-29T00:31:21;8.45;;;6.20;;
22026;SDS011;11177;50.966;10.070;2022-09-29T00:33:49;7.65;;;5.88;;
22026;SDS011;11177;50.966;10.070;2022-09-29T00:36:18;7.18;;;5.50;;
22026;SDS011;11177;50.966;10.070;2022-09-29T00:38:48;7.95;;;5.55;;
22026;SDS011;11177;50.966;10.070;2022-09-29T00:41:19;11.18;;;5.63;;
22026;SDS011;11177;50.966;10.070;2022-09-29T00:43:56;6.97;;;5.25;;
22026;SDS011;11177;50.966;10.070;2022-09-29T00:46:41;10.13;;;5.68;;
22026;SDS011;11177;50.966;10.070;2022-09-29T00:49:22;10.05;;;5.63;;
22026;SDS011;11177;50.966;10.070;2022-09-29T00:52:11;9.95;;;5.47;;
22026;SDS011;11177;50.966;10.070;2022-09-29T00:54:45;8.70;;;5.45;;
22026;SDS011;11177;50.966;10.070;2022-09-29T00:57:15;11.88;;;5.60;;
22026;SDS011;11177;50.966;10.070;2022-09-29T00:59:53;9.20;;;5.72;;
22026;SDS011;11177;50.966;10.070;2022-09-29T01:02:35;6.72;;;5.05;;
22026;SDS011;11177;50.966;10.070;2022-09-29T01:05:09;8.07;;;5.80;;
22026;SDS011;11177;50.966;10.070;2022-09-29T01:07:42;10.52;;;5.90;;
22026;SDS011;11177;50.966;10.070;2022-09-29T01:10:10;11.32;;;5.60;;
22026;SDS011;11177;50.966;10.070;2022-09-29T01:12:40;8.52;;;5.55;;
22026;SDS011;11177;50.966;10.070;2022-09-29T01:15:10;9.15;;;5.85;;
22026;SDS011;11177;50.966;10.070;2022-09-29T01:17:41;7.60;;;5.40;;
22026;SDS011;11177;50.966;10.070;2022-09-29T01:20:11;6.95;;;5.30;;
22026;SDS011;11177;50.966;10.070;2022-09-29T01:23:07;8.95;;;5.65;;
22026;SDS011;11177;50.966;10.070;2022-09-29T01:31:50;8.02;;;5.63;;
22026;SDS011;11177;50.966;10.070;2022-09-29T01:35:25;9.88;;;5.80;;
22026;SDS011;11177;50.966;10.070;2022-09-29T01:43:21;7.40;;;5.90;;
22026;SDS011;11177;50.966;10.070;2022-09-29T01:45:52;7.72;;;5.72;;
22026;SDS011;11177;50.966;10.070;2022-09-29T01:48:25;8.07;;;5.80;;
22026;SDS011;11177;50.966;10.070;2022-09-29T01:50:55;9.15;;;5.88;;
22026;SDS011;11177;50.966;10.070;2022-09-29T01:53:27;8.38;;;5.78;;
22026;SDS011;11177;50.966;10.070;2022-09-29T01:56:01;10.30;;;6.03;;
22026;SDS011;11177;50.966;10.070;2022-09-29T01:58:35;7.75;;;5.35;;
22026;SDS011;11177;50.966;10.070;2022-09-29T02:01:16;9.00;;;5.70;;
22026;SDS011;11177;50.966;10.070;2022-09-29T02:03:50;7.35;;;5.53;;
22026;SDS011;11177;50.966;10.070;2022-09-29T02:06:24;8.65;;;5.95;;
22026;SDS011;11177;50.966;10.070;2022-09-29T02:08:54;8.68;;;5.55;;
22026;SDS011;11177;50.966;10.070;2022-09-29T02:11:23;7.30;;;5.60;;
22026;SDS011;11177;50.966;10.070;2022-09-29T02:14:34;7.72;;;5.85;;
22026;SDS011;11177;50.966;10.070;2022-09-29T02:16:50;8.07;;;5.85;;
22026;SDS011;11177;50.966;10.070;2022-09-29T02:19:25;9.18;;;6.13;;
22026;SDS011;11177;50.966;10.070;2022-09-29T02:21:53;10.05;;;5.88;;
22026;SDS011;11177;50.966;10.070;2022-09-29T02:24:21;9.02;;;6.22;;
22026;SDS011;11177;50.966;10.070;2022-09-29T02:26:49;7.47;;;5.90;;
22026;SDS011;11177;50.966;10.070;2022-09-29T02:29:17;8.63;;;5.63;;
22026;SDS011;11177;50.966;10.070;2022-09-29T02:31:44;9.90;;;6.05;;
22026;SDS011;11177;50.966;10.070;2022-09-29T02:34:14;7.93;;;6.10;;
22026;SDS011;11177;50.966;10.070;2022-09-29T02:37:04;7.18;;;5.70;;
22026;SDS011;11177;50.966;10.070;2022-09-29T02:45:22;9.80;;;6.30;;
22026;SDS011;11177;50.966;10.070;2022-09-29T02:51:36;8.35;;;5.75;;
22026;SDS011;11177;50.966;10.070;2022-09-29T02:57:50;10.85;;;6.57;;
22026;SDS011;11177;50.966;10.070;2022-09-29T03:00:00;9.15;;;6.20;;
22026;SDS011;11177;50.966;10.070;2022-09-29T03:02:37;10.60;;;6.40;;
22026;SDS011;11177;50.966;10.070;2022-09-29T03:05:09;9.88;;;6.05;;
22026;SDS011;11177;50.966;10.070;2022-09-29T03:07:38;9.45;;;6.13;;
22026;SDS011;11177;50.966;10.070;2022-09-29T03:10:05;11.48;;;6.47;;
22026;SDS011;11177;50.966;10.070;2022-09-29T03:12:33;8.65;;;6.28;;
22026;SDS011;11177;50.966;10.070;2022-09-29T03:15:02;10.73;;;6.22;;
22026;SDS011;11177;50.966;10.070;2022-09-29T03:17:31;10.75;;;6.47;;
22026;SDS011;11177;50.966;10.070;2022-09-29T03:19:59;8.98;;;6.47;;
22026;SDS011;11177;50.966;10.070;2022-09-29T03:22:26;11.73;;;6.38;;
22026;SDS011;11177;50.966;10.070;2022-09-29T03:24:54;10.00;;;6.80;;
22026;SDS011;11177;50.966;10.070;2022-09-29T03:27:21;8.63;;;6.15;;
22026;SDS011;11177;50.966;10.070;2022-09-29T03:29:50;9.77;;;6.60;;
22026;SDS011;11177;50.966;10.070;2022-09-29T03:32:17;11.50;;;6.50;;
22026;SDS011;11177;50.966;10.070;2022-09-29T03:34:44;10.65;;;6.65;;
22026;SDS011;11177;50.966;10.070;2022-09-29T03:37:11;9.77;;;6.53;;
22026;SDS011;11177;50.966;10.070;2022-09-29T03:39:38;9.77;;;6.53;;
22026;SDS011;11177;50.966;10.070;2022-09-29T03:42:06;12.23;;;6.32;;
22026;SDS011;11177;50.966;10.070;2022-09-29T03:44:34;8.05;;;5.95;;
22026;SDS011;11177;50.966;10.070;2022-09-29T03:47:01;9.15;;;5.60;;
22026;SDS011;11177;50.966;10.070;2022-09-29T03:49:29;9.07;;;5.82;;
22026;SDS011;11177;50.966;10.070;2022-09-29T03:51:56;9.30;;;5.70;;
22026;SDS011;11177;50.966;10.070;2022-09-29T03:54:25;9.60;;;5.95;;
22026;SDS011;11177;50.966;10.070;2022-09-29T03:56:54;8.15;;;6.15;;
22026;SDS011;11177;50.966;10.070;2022-09-29T03:59:22;9.68;;;6.18;;
22026;SDS011;11177;50.966;10.070;2022-09-29T04:01:49;8.55;;;6.13;;
22026;SDS011;11177;50.966;10.070;2022-09-29T04:04:16;11.35;;;6.43;;
22026;SDS011;11177;50.966;10.070;2022-09-29T04:06:45;10.40;;;5.80;;
22026;SDS011;11177;50.966;10.070;2022-09-29T04:09:12;9.40;;;5.70;;
22026;SDS011;11177;50.966;10.070;2022-09-29T04:11:42;15.00;;;6.07;;
22026;SDS011;11177;50.966;10.070;2022-09-29T04:14:11;9.38;;;5.57;;
22026;SDS011;11177;50.966;10.070;2022-09-29T04:16:39;7.40;;;5.72;;
22026;SDS011;11177;50.966;10.070;2022-09-29T04:19:06;8.52;;;5.90;;
22026;SDS011;11177;50.966;10.070;2022-09-29T04:21:33;8.27;;;5.35;;
22026;SDS011;11177;50.966;10.070;2022-09-29T04:24:00;7.43;;;5.75;;
22026;SDS011;11177;50.966;10.070;2022-09-29T04:26:29;9.68;;;5.63;;
22026;SDS011;11177;50.966;10.070;2022-09-29T04:28:57;9.77;;;5.50;;
22026;SDS011;11177;50.966;10.070;2022-09-29T04:31:24;7.53;;;5.22;;
22026;SDS011;11177;50.966;10.070;2022-09-29T04:33:52;7.63;;;5.53;;
22026;SDS011;11177;50.966;10.070;2022-09-29T04:36:19;7.03;;;4.90;;
22026;SDS011;11177;50.966;10.070;2022-09-29T04:38:48;10.88;;;5.05;;
22026;SDS011;11177;50.966;10.070;2022-09-29T04:41:18;8.90;;;5.38;;
22026;SDS011;11177;50.966;10.070;2022-09-29T04:43:47;8.65;;;5.43;;
22026;SDS011;11177;50.966;10.070;2022-09-29T04:46:14;10.38;;;5.57;;
22026;SDS011;11177;50.966;10.070;2022-09-29T04:48:41;7.63;;;5.72;;
22026;SDS011;11177;50.966;10.070;2022-09-29T04:51:09;7.57;;;5.35;;
22026;SDS011;11177;50.966;10.070;2022-09-29T04:53:37;7.22;;;5.60;;
22026;SDS011;11177;50.966;10.070;2022-09-29T04:56:06;10.98;;;5.50;;
22026;SDS011;11177;50.966;10.070;2022-09-29T04:58:38;8.30;;;5.50;;
22026;SDS011;11177;50.966;10.070;2022-09-29T05:01:07;9.40;;;5.80;;
22026;SDS011;11177;50.966;10.070;2022-09-29T05:03:38;8.52;;;5.88;;
22026;SDS011;11177;50.966;10.070;2022-09-29T05:06:08;11.45;;;6.18;;
22026;SDS011;11177;50.966;10.070;2022-09-29T05:08:36;8.18;;;5.75;;
22026;SDS011;11177;50.966;10.070;2022-09-29T05:11:04;10.13;;;6.00;;
22026;SDS011;11177;50.966;10.070;2022-09-29T05:13:32;7.93;;;5.75;;
22026;SDS011;11177;50.966;10.070;2022-09-29T05:15:59;8.63;;;6.18;;
22026;SDS011;11177;50.966;10.070;2022-09-29T05:18:28;10.18;;;6.30;;
22026;SDS011;11177;50.966;10.070;2022-09-29T05:21:01;10.52;;;6.03;;
22026;SDS011;11177;50.966;10.070;2022-09-29T05:23:52;11.40;;;6.80;;
22026;SDS011;11177;50.966;10.070;2022-09-29T05:26:19;10.02;;;6.88;;
22026;SDS011;11177;50.966;10.070;2022-09-29T05:28:46;12.07;;;6.78;;
22026;SDS011;11177;50.966;10.070;2022-09-29T05:31:15;14.25;;;7.68;;
22026;SDS011;11177;50.966;10.070;2022-09-29T05:33:44;9.65;;;6.78;;
22026;SDS011;11177;50.966;10.070;2022-09-29T05:36:13;13.57;;;7.80;;
22026;SDS011;11177;50.966;10.070;2022-09-29T05:38:42;11.63;;;7.10;;
22026;SDS011;11177;50.966;10.070;2022-09-29T05:41:12;12.60;;;7.10;;
22026;SDS011;11177;50.966;10.070;2022-09-29T05:43:39;13.27;;;7.53;;
22026;SDS011;11177;50.966;10.070;2022-09-29T05:46:07;10.38;;;7.65;;
22026;SDS011;11177;50.966;10.070;2022-09-29T05:48:35;14.02;;;7.78;;
22026;SDS011;11177;50.966;10.070;2022-09-29T05:51:07;11.07;;;7.22;;
22026;SDS011;11177;50.966;10.070;2022-09-29T05:53:35;11.63;;;7.25;;
22026;SDS011;11177;50.966;10.070;2022-09-29T05:56:03;14.00;;;7.72;;
22026;SDS011;11177;50.966;10.070;2022-09-29T05:58:35;12.23;;;7.50;;
22026;SDS011;11177;50.966;10.070;2022-09-29T06:01:10;14.48;;;7.63;;
22026;SDS011;11177;50.966;10.070;2022-09-29T06:03:39;16.65;;;8.32;;
22026;SDS011;11177;50.966;10.070;2022-09-29T06:06:17;11.35;;;8.07;;
22026;SDS011;11177;50.966;10.070;2022-09-29T06:08:46;13.90;;;9.02;;
22026;SDS011;11177;50.966;10.070;2022-09-29T06:11:16;11.15;;;8.10;;
22026;SDS011;11177;50.966;10.070;2022-09-29T06:13:45;10.98;;;7.95;;
22026;SDS011;11177;50.966;10.070;2022-09-29T06:16:14;14.60;;;8.45;;
22026;SDS011;11177;50.966;10.070;2022-09-29T06:18:43;10.80;;;7.85;;
22026;SDS011;11177;50.966;10.070;2022-09-29T06:21:11;10.18;;;7.38;;
22026;SDS011;11177;50.966;10.070;2022-09-29T06:23:39;13.50;;;7.78;;
22026;SDS011;11177;50.966;10.070;2022-09-29T06:26:11;11.88;;;7.55;;
22026;SDS011;11177;50.966;10.070;2022-09-29T06:28:40;18.55;;;11.93;;
22026;SDS011;11177;50.966;10.070;2022-09-29T06:31:12;11.77;;;7.97;;
22026;SDS011;11177;50.966;10.070;2022-09-29T06:33:40;10.60;;;7.35;;
22026;SDS011;11177;50.966;10.070;2022-09-29T06:36:14;10.68;;;7.40;;
22026;SDS011;11177;50.966;10.070;2022-09-29T06:39:02;11.88;;;7.28;;
22026;SDS011;11177;50.966;10.070;2022-09-29T06:41:33;12.32;;;7.22;;
22026;SDS011;11177;50.966;10.070;2022-09-29T06:44:01;10.27;;;7.05;;
22026;SDS011;11177;50.966;10.070;2022-09-29T06:46:29;9.68;;;7.22;;
22026;SDS011;11177;50.966;10.070;2022-09-29T06:48:57;10.57;;;7.43;;
22026;SDS011;11177;50.966;10.070;2022-09-29T06:51:26;13.23;;;8.05;;
22026;SDS011;11177;50.966;10.070;2022-09-29T06:54:13;10.80;;;7.78;;
22026;SDS011;11177;50.966;10.070;2022-09-29T06:56:47;10.23;;;7.57;;
22026;SDS011;11177;50.966;10.070;2022-09-29T06:59:15;10.95;;;7.07;;
22026;SDS011;11177;50.966;10.070;2022-09-29T07:01:44;11.35;;;7.47;;
22026;SDS011;11177;50.966;10.070;2022-09-29T07:04:17;13.77;;;6.97;;
22026;SDS011;11177;50.966;10.070;2022-09-29T07:06:46;17.50;;;9.05;;
22026;SDS011;11177;50.966;10.070;2022-09-29T07:09:15;10.13;;;7.50;;
22026;SDS011;11177;50.966;10.070;2022-09-29T07:11:45;14.43;;;8.43;;
22026;SDS011;11177;50.966;10.070;2022-09-29T07:14:17;13.23;;;8.60;;
22026;SDS011;11177;50.966;10.070;2022-09-29T07:16:48;15.50;;;10.65;;
22026;SDS011;11177;50.966;10.070;2022-09-29T07:19:17;12.75;;;8.30;;
22026;SDS011;11177;50.966;10.070;2022-09-29T07:21:47;10.70;;;8.10;;
22026;SDS011;11177;50.966;10.070;2022-09-29T07:24:17;12.70;;;8.75;;
22026;SDS011;11177;50.966;10.070;2022-09-29T07:26:45;13.70;;;8.90;;
22026;SDS011;11177;50.966;10.070;2022-09-29T07:29:12;14.50;;;8.07;;
22026;SDS011;11177;50.966;10.070;2022-09-29T07:31:41;10.52;;;6.57;;
22026;SDS011;11177;50.966;10.070;2022-09-29T07:34:18;11.20;;;6.90;;
22026;SDS011;11177;50.966;10.070;2022-09-29T07:36:47;8.13;;;6.43;;
22026;SDS011;11177;50.966;10.070;2022-09-29T07:39:15;7.80;;;6.32;;
22026;SDS011;11177;50.966;10.070;2022-09-29T07:41:42;8.05;;;6.25;;
22026;SDS011;11177;50.966;10.070;2022-09-29T07:44:09;7.65;;;5.90;;
22026;SDS011;11177;50.966;10.070;2022-09-29T07:46:37;7.22;;;5.70;;
22026;SDS011;11177;50.966;10.070;2022-09-29T07:49:06;6.90;;;5.93;;
22026;SDS011;11177;50.966;10.070;2022-09-29T07:51:33;7.82;;;5.75;;
22026;SDS011;11177;50.966;10.070;2022-09-29T07:54:03;9.00;;;6.88;;
22026;SDS011;11177;50.966;10.070;2022-09-29T07:56:31;12.13;;;8.48;;
22026;SDS011;11177;50.966;10.070;2022-09-29T07:58:59;19.42;;;11.85;;
22026;SDS011;11177;50.966;10.070;2022-09-29T08:01:28;18.98;;;10.55;;
22026;SDS011;11177;50.966;10.070;2022-09-29T08:03:57;14.27;;;9.73;;
22026;SDS011;11177;50.966;10.070;2022-09-29T08:06:26;12.75;;;9.43;;
22026;SDS011;11177;50.966;10.070;2022-09-29T08:08:56;17.58;;;10.80;;
22026;SDS011;11177;50.966;10.070;2022-09-29T08:11:29;16.98;;;10.38;;
22026;SDS011;11177;50.966;10.070;2022-09-29T08:13:59;15.10;;;11.00;;
22026;SDS011;11177;50.966;10.070;2022-09-29T08:16:27;14.05;;;9.68;;
22026;SDS011;11177;50.966;10.070;2022-09-29T08:18:54;14.32;;;9.68;;
22026;SDS011;11177;50.966;10.070;2022-09-29T08:21:21;15.50;;;9.63;;
22026;SDS011;11177;50.966;10.070;2022-09-29T08:23:50;13.38;;;9.40;;
22026;SDS011;11177;50.966;10.070;2022-09-29T08:26:18;15.43;;;9.50;;
22026;SDS011;11177;50.966;10.070;2022-09-29T08:28:58;15.98;;;9.73;;
22026;SDS011;11177;50.966;10.070;2022-09-29T08:31:34;13.52;;;8.88;;
22026;SDS011;11177;50.966;10.070;2022-09-29T08:34:02;13.68;;;9.05;;
22026;SDS011;11177;50.966;10.070;2022-09-29T08:36:33;13.02;;;8.93;;
22026;SDS011;11177;50.966;10.070;2022-09-29T08:39:02;13.52;;;9.48;;
22026;SDS011;11177;50.966;10.070;2022-09-29T08:41:33;13.40;;;9.52;;
22026;SDS011;11177;50.966;10.070;2022-09-29T08:44:21;14.80;;;9.52;;
22026;SDS011;11177;50.966;10.070;2022-09-29T08:50:30;15.20;;;9.53;;
22026;SDS011;11177;50.966;10.070;2022-09-29T08:53:02;13.30;;;9.20;;
22026;SDS011;11177;50.966;10.070;2022-09-29T08:55:57;14.65;;;9.38;;
22026;SDS011;11177;50.966;10.070;2022-09-29T08:58:30;10.90;;;7.50;;
22026;SDS011;11177;50.966;10.070;2022-09-29T09:01:01;8.93;;;6.75;;
22026;SDS011;11177;50.966;10.070;2022-09-29T09:06:11;11.88;;;7.32;;
22026;SDS011;11177;50.966;10.070;2022-09-29T09:08:53;14.87;;;8.27;;
22026;SDS011;11177;50.966;10.070;2022-09-29T09:15:46;11.50;;;6.72;;
22026;SDS011;11177;50.966;10.070;2022-09-29T09:18:22;10.50;;;7.53;;
22026;SDS011;11177;50.966;10.070;2022-09-29T09:21:12;8.77;;;6.07;;
22026;SDS011;11177;50.966;10.070;2022-09-29T09:23:57;12.48;;;6.32;;
22026;SDS011;11177;50.966;10.070;2022-09-29T09:29:08;10.10;;;6.38;;
22026;SDS011;11177;50.966;10.070;2022-09-29T09:32:23;8.73;;;5.90;;
22026;SDS011;11177;50.966;10.070;2022-09-29T09:34:41;9.68;;;6.03;;
22026;SDS011;11177;50.966;10.070;2022-09-29T09:37:44;8.35;;;5.82;;
22026;SDS011;11177;50.966;10.070;2022-09-29T09:40:19;7.97;;;6.05;;
22026;SDS011;11177;50.966;10.070;2022-09-29T09:43:21;10.57;;;5.55;;
22026;SDS011;11177;50.966;10.070;2022-09-29T09:45:55;6.65;;;5.93;;
22026;SDS011;11177;50.966;10.070;2022-09-29T09:48:37;8.90;;;6.10;;
22026;SDS011;11177;50.966;10.070;2022-09-29T09:51:17;8.60;;;5.70;;
22026;SDS011;11177;50.966;10.070;2022-09-29T09:54:08;6.95;;;5.65;;
22026;SDS011;11177;50.966;10.070;2022-09-29T10:01:55;8.27;;;5.40;;
22026;SDS011;11177;50.966;10.070;2022-09-29T10:04:22;7.15;;;5.00;;
22026;SDS011;11177;50.966;10.070;2022-09-29T10:06:51;5.20;;;4.60;;
22026;SDS011;11177;50.966;10.070;2022-09-29T10:09:18;5.22;;;4.38;;
22026;SDS011;11177;50.966;10.070;2022-09-29T10:11:46;7.05;;;4.60;;
22026;SDS011;11177;50.966;10.070;2022-09-29T10:14:23;5.72;;;5.13;;
22026;SDS011;11177;50.966;10.070;2022-09-29T10:16:59;6.22;;;5.63;;
22026;SDS011;11177;50.966;10.070;2022-09-29T10:19:52;8.60;;;5.20;;
22026;SDS011;11177;50.966;10.070;2022-09-29T10:22:21;6.18;;;4.18;;
22026;SDS011;11177;50.966;10.070;2022-09-29T10:24:53;4.63;;;4.13;;
22026;SDS011;11177;50.966;10.070;2022-09-29T10:27:37;5.00;;;4.50;;
22026;SDS011;11177;50.966;10.070;2022-09-29T10:33:03;5.25;;;4.72;;
22026;SDS011;11177;50.966;10.070;2022-09-29T10:35:39;5.82;;;5.00;;
22026;SDS011;11177;50.966;10.070;2022-09-29T10:38:14;6.43;;;5.10;;
22026;SDS011;11177;50.966;10.070;2022-09-29T10:40:53;6.80;;;4.80;;
22026;SDS011;11177;50.966;10.070;2022-09-29T10:43:39;6.53;;;4.95;;
22026;SDS011;11177;50.966;10.070;2022-09-29T10:49:17;5.22;;;4.63;;
22026;SDS011;11177;50.966;10.070;2022-09-29T10:51:59;5.68;;;4.15;;
22026;SDS011;11177;50.966;10.070;2022-09-29T10:54:29;5.03;;;4.40;;
22026;SDS011;11177;50.966;10.070;2022-09-29T10:56:59;5.45;;;4.10;;
22026;SDS011;11177;50.966;10.070;2022-09-29T10:59:36;5.15;;;4.00;;
22026;SDS011;11177;50.966;10.070;2022-09-29T11:02:24;6.25;;;3.70;;
22026;SDS011;11177;50.966;10.070;2022-09-29T11:04:55;6.15;;;4.10;;
22026;SDS011;11177;50.966;10.070;2022-09-29T11:07:25;5.82;;;4.00;;
22026;SDS011;11177;50.966;10.070;2022-09-29T11:09:53;4.07;;;3.38;;
22026;SDS011;11177;50.966;10.070;2022-09-29T11:12:31;6.63;;;3.65;;
22026;SDS011;11177;50.966;10.070;2022-09-29T11:15:00;5.95;;;3.95;;
22026;SDS011;11177;50.966;10.070;2022-09-29T11:17:38;5.45;;;4.00;;
22026;SDS011;11177;50.966;10.070;2022-09-29T11:20:09;4.68;;;3.40;;
22026;SDS011;11177;50.966;10.070;2022-09-29T11:23:40;4.00;;;3.60;;
22026;SDS011;11177;50.966;10.070;2022-09-29T11:28:46;6.23;;;3.77;;
22026;SDS011;11177;50.966;10.070;2022-09-29T11:31:46;6.07;;;3.38;;
22026;SDS011;11177;50.966;10.070;2022-09-29T11:35:03;7.40;;;3.67;;
22026;SDS011;11177;50.966;10.070;2022-09-29T11:44:07;4.40;;;3.10;;
22026;SDS011;11177;50.966;10.070;2022-09-29T11:53:32;6.47;;;3.40;;
22026;SDS011;11177;50.966;10.070;2022-09-29T11:55:51;6.68;;;3.22;;
22026;SDS011;11177;50.966;10.070;2022-09-29T11:58:56;4.63;;;3.17;;
22026;SDS011;11177;50.966;10.070;2022-09-29T12:01:51;3.60;;;2.78;;
22026;SDS011;11177;50.966;10.070;2022-09-29T12:04:49;5.53;;;2.78;;
22026;SDS011;11177;50.966;10.070;2022-09-29T12:11:03;5.20;;;2.70;;
22026;SDS011;11177;50.966;10.070;2022-09-29T12:14:18;2.65;;;2.30;;
22026;SDS011;11177;50.966;10.070;2022-09-29T12:16:50;7.45;;;2.80;;
22026;SDS011;11177;50.966;10.070;2022-09-29T12:19:22;3.63;;;2.63;;
22026;SDS011;11177;50.966;10.070;2022-09-29T12:21:51;3.83;;;2.90;;
22026;SDS011;11177;50.966;10.070;2022-09-29T12:24:37;5.20;;;3.20;;
22026;SDS011;11177;50.966;10.070;2022-09-29T12:27:15;5.15;;;2.60;;
22026;SDS011;11177;50.966;10.070;2022-09-29T12:29:54;6.05;;;2.67;;
22026;SDS011;11177;50.966;10.070;2022-09-29T12:32:52;5.45;;;2.92;;
22026;SDS011;11177;50.966;10.070;2022-09-29T12:35:41;3.78;;;2.60;;
22026;SDS011;11177;50.966;10.070;2022-09-29T12:39:07;5.53;;;2.50;;
22026;SDS011;11177;50.966;10.070;2022-09-29T12:41:40;3.00;;;2.40;;
22026;SDS011;11177;50.966;10.070;2022-09-29T12:44:30;3.63;;;2.30;;
22026;SDS011;11177;50.966;10.070;2022-09-29T12:50:31;2.88;;;2.45;;
22026;SDS011;11177;50.966;10.070;2022-09-29T12:55:44;4.30;;;3.40;;
22026;SDS011;11177;50.966;10.070;2022-09-29T12:58:14;7.63;;;3.13;;
22026;SDS011;11177;50.966;10.070;2022-09-29T13:00:49;5.65;;;2.53;;
22026;SDS011;11177;50.966;10.070;2022-09-29T13:06:10;2.65;;;2.40;;
22026;SDS011;11177;50.966;10.070;2022-09-29T13:09:08;5.47;;;2.50;;
22026;SDS011;11177;50.966;10.070;2022-09-29T13:22:04;4.50;;;2.45;;
22026;SDS011;11177;50.966;10.070;2022-09-29T13:25:10;4.55;;;2.58;;
22026;SDS011;11177;50.966;10.070;2022-09-29T13:27:48;3.97;;;2.50;;
22026;SDS011;11177;50.966;10.070;2022-09-29T13:30:17;4.55;;;2.50;;
22026;SDS011;11177;50.966;10.070;2022-09-29T13:32:48;2.75;;;2.47;;
22026;SDS011;11177;50.966;10.070;2022-09-29T13:35:18;2.67;;;2.33;;
22026;SDS011;11177;50.966;10.070;2022-09-29T13:37:50;4.47;;;2.60;;
22026;SDS011;11177;50.966;10.070;2022-09-29T13:40:29;6.63;;;2.88;;
22026;SDS011;11177;50.966;10.070;2022-09-29T13:43:01;3.63;;;2.72;;
22026;SDS011;11177;50.966;10.070;2022-09-29T13:51:20;2.95;;;2.28;;
22026;SDS011;11177;50.966;10.070;2022-09-29T13:54:12;4.50;;;2.80;;
22026;SDS011;11177;50.966;10.070;2022-09-29T13:57:21;4.10;;;3.00;;
22026;SDS011;11177;50.966;10.070;2022-09-29T14:02:29;3.67;;;2.50;;
22026;SDS011;11177;50.966;10.070;2022-09-29T14:05:01;6.07;;;3.20;;
22026;SDS011;11177;50.966;10.070;2022-09-29T14:07:45;4.90;;;3.10;;
22026;SDS011;11177;50.966;10.070;2022-09-29T14:13:24;6.10;;;2.90;;
22026;SDS011;11177;50.966;10.070;2022-09-29T14:16:20;5.55;;;2.90;;
22026;SDS011;11177;50.966;10.070;2022-09-29T14:22:49;8.07;;;2.20;;
22026;SDS011;11177;50.966;10.070;2022-09-29T14:27:44;2.47;;;1.42;;
22026;SDS011;11177;50.966;10.070;2022-09-29T14:30:19;3.25;;;1.63;;
22026;SDS011;11177;50.966;10.070;2022-09-29T14:33:24;3.83;;;2.00;;
22026;SDS011;11177;50.966;10.070;2022-09-29T14:36:00;3.17;;;2.40;;
22026;SDS011;11177;50.966;10.070;2022-09-29T14:38:41;3.85;;;2.55;;
22026;SDS011;11177;50.966;10.070;2022-09-29T14:41:17;3.97;;;2.35;;
22026;SDS011;11177;50.966;10.070;2022-09-29T14:43:55;4.15;;;2.28;;
22026;SDS011;11177;50.966;10.070;2022-09-29T14:56:21;2.95;;;1.60;;
22026;SDS011;11177;50.966;10.070;2022-09-29T14:59:54;1.80;;;1.25;;
22026;SDS011;11177;50.966;10.070;2022-09-29T15:02:30;2.55;;;2.00;;
22026;SDS011;11177;50.966;10.070;2022-09-29T15:04:59;4.07;;;1.90;;
22026;SDS011;11177;50.966;10.070;2022-09-29T15:07:40;3.80;;;3.40;;
22026;SDS011;11177;50.966;10.070;2022-09-29T15:10:20;2.78;;;1.20;;
22026;SDS011;11177;50.966;10.070;2022-09-29T15:15:46;1.77;;;1.00;;
22026;SDS011;11177;50.966;10.070;2022-09-29T15:18:22;1.98;;;1.20;;
22026;SDS011;11177;50.966;10.070;2022-09-29T15:21:18;2.60;;;1.42;;
22026;SDS011;11177;50.966;10.070;2022-09-29T15:24:35;6.97;;;6.03;;
22026;SDS011;11177;50.966;10.070;2022-09-29T15:26:50;4.05;;;3.13;;
22026;SDS011;11177;50.966;10.070;2022-09-29T15:29:17;3.17;;;2.20;;
22026;SDS011;11177;50.966;10.070;2022-09-29T15:31:45;1.30;;;1.20;;
22026;SDS011;11177;50.966;10.070;2022-09-29T15:34:19;19.27;;;14.00;;
22026;SDS011;11177;50.966;10.070;2022-09-29T15:36:49;43.83;;;33.42;;
22026;SDS011;11177;50.966;10.070;2022-09-29T15:42:18;2.50;;;1.98;;
22026;SDS011;11177;50.966;10.070;2022-09-29T15:44:59;1.70;;;1.60;;
22026;SDS011;11177;50.966;10.070;2022-09-29T15:52:52;3.88;;;2.28;;
22026;SDS011;11177;50.966;10.070;2022-09-29T15:55:23;9.52;;;5.68;;
22026;SDS011;11177;50.966;10.070;2022-09-29T15:57:51;19.25;;;12.23;;
22026;SDS011;11177;50.966;10.070;2022-09-29T16:00:42;2.25;;;1.80;;
22026;SDS011;11177;50.966;10.070;2022-09-29T16:03:09;3.45;;;2.20;;
22026;SDS011;11177;50.966;10.070;2022-09-29T16:05:41;8.35;;;3.88;;
22026;SDS011;11177;50.966;10.070;2022-09-29T16:08:18;3.90;;;2.72;;
22026;SDS011;11177;50.966;10.070;2022-09-29T16:13:19;7.35;;;3.55;;
22026;SDS011;11177;50.966;10.070;2022-09-29T16:15:50;5.93;;;2.80;;
22026;SDS011;11177;50.966;10.070;2022-09-29T16:18:29;9.80;;;3.05;;
22026;SDS011;11177;50.966;10.070;2022-09-29T16:20:58;9.93;;;2.90;;
22026;SDS011;11177;50.966;10.070;2022-09-29T16:23:28;7.53;;;2.45;;
22026;SDS011;11177;50.966;10.070;2022-09-29T16:26:44;7.47;;;2.70;;
22026;SDS011;11177;50.966;10.070;2022-09-29T16:44:23;4.70;;;3.03;;
22026;SDS011;11177;50.966;10.070;2022-09-29T16:47:03;4.57;;;3.40;;
22026;SDS011;11177;50.966;10.070;2022-09-29T16:49:57;4.80;;;4.00;;
22026;SDS011;11177;50.966;10.070;2022-09-29T16:52:33;5.63;;;4.05;;
22026;SDS011;11177;50.966;10.070;2022-09-29T16:55:26;3.78;;;3.08;;
22026;SDS011;11177;50.966;10.070;2022-09-29T16:58:09;9.18;;;6.45;;
22026;SDS011;11177;50.966;10.070;2022-09-29T17:00:39;7.15;;;6.10;;
22026;SDS011;11177;50.966;10.070;2022-09-29T17:03:06;6.55;;;5.68;;
22026;SDS011;11177;50.966;10.070;2022-09-29T17:05:38;6.32;;;5.55;;
22026;SDS011;11177;50.966;10.070;2022-09-29T17:08:13;4.35;;;3.90;;
22026;SDS011;11177;50.966;10.070;2022-09-29T17:10:41;3.45;;;2.33;;
22026;SDS011;11177;50.966;10.070;2022-09-29T17:13:12;3.33;;;2.08;;
22026;SDS011;11177;50.966;10.070;2022-09-29T17:15:41;2.20;;;2.00;;
22026;SDS011;11177;50.966;10.070;2022-09-29T17:18:11;4.88;;;2.40;;
22026;SDS011;11177;50.966;10.070;2022-09-29T17:20:38;2.20;;;2.00;;
22026;SDS011;11177;50.966;10.070;2022-09-29T17:23:06;2.85;;;1.95;;
22026;SDS011;11177;50.966;10.070;2022-09-29T17:25:37;2.40;;;1.80;;
22026;SDS011;11177;50.966;10.070;2022-09-29T17:28:16;6.30;;;1.70;;
22026;SDS011;11177;50.966;10.070;2022-09-29T17:30:45;1.50;;;1.40;;
22026;SDS011;11177;50.966;10.070;2022-09-29T17:33:14;2.45;;;1.90;;
22026;SDS011;11177;50.966;10.070;2022-09-29T17:35:45;3.13;;;1.20;;
22026;SDS011;11177;50.966;10.070;2022-09-29T17:38:20;2.05;;;1.23;;